sensor_id;sensor_type;location;lat;lon;timestamp;P1;durP1;ratioP1;P2;durP2;ratioP2
55756;SDS011;41676;44.610;44.078;2022-12-29T00:04:28;5.82;;;2.80;;
55756;SDS011;41676;44.610;44.078;2022-12-29T00:09:29;8.13;;;4.00;;
55756;SDS011;41676;44.610;44.078;2022-12-29T00:14:30;8.68;;;4.68;;
55756;SDS011;41676;44.610;44.078;2022-12-29T00:19:49;5.18;;;3.05;;
55756;SDS011;41676;44.610;44.078;2022-12-29T00:25:09;5.05;;;2.45;;
55756;SDS011;41676;44.610;44.078;2022-12-29T00:30:30;11.10;;;2.50;;
55756;SDS011;41676;44.610;44.078;2022-12-29T00:35:52;5.32;;;2.30;;
55756;SDS011;41676;44.610;44.078;2022-12-29T00:40:58;5.88;;;2.60;;
55756;SDS011;41676;44.610;44.078;2022-12-29T00:46:17;8.27;;;3.40;;
55756;SDS011;41676;44.610;44.078;2022-12-29T00:51:18;6.05;;;3.22;;
55756;SDS011;41676;44.610;44.078;2022-12-29T00:56:19;6.40;;;3.80;;
55756;SDS011;41676;44.610;44.078;2022-12-29T01:01:20;6.18;;;4.03;;
55756;SDS011;41676;44.610;44.078;2022-12-29T01:06:20;7.75;;;4.45;;
55756;SDS011;41676;44.610;44.078;2022-12-29T01:11:21;8.05;;;4.30;;
55756;SDS011;41676;44.610;44.078;2022-12-29T01:16:22;8.38;;;4.45;;
55756;SDS011;41676;44.610;44.078;2022-12-29T01:21:23;9.75;;;4.15;;
55756;SDS011;41676;44.610;44.078;2022-12-29T01:26:24;10.35;;;4.38;;
55756;SDS011;41676;44.610;44.078;2022-12-29T01:31:25;7.55;;;4.13;;
55756;SDS011;41676;44.610;44.078;2022-12-29T01:36:26;11.20;;;4.60;;
55756;SDS011;41676;44.610;44.078;2022-12-29T01:41:27;12.27;;;5.00;;
55756;SDS011;41676;44.610;44.078;2022-12-29T01:51:32;9.38;;;5.03;;
55756;SDS011;41676;44.610;44.078;2022-12-29T01:56:36;6.97;;;4.68;;
55756;SDS011;41676;44.610;44.078;2022-12-29T02:01:37;10.68;;;5.35;;
55756;SDS011;41676;44.610;44.078;2022-12-29T02:06:57;8.25;;;5.53;;
55756;SDS011;41676;44.610;44.078;2022-12-29T02:12:02;10.02;;;6.45;;
55756;SDS011;41676;44.610;44.078;2022-12-29T02:27:34;9.68;;;6.88;;
55756;SDS011;41676;44.610;44.078;2022-12-29T02:38:05;10.65;;;6.45;;
55756;SDS011;41676;44.610;44.078;2022-12-29T02:44:22;9.93;;;5.90;;
55756;SDS011;41676;44.610;44.078;2022-12-29T02:54:09;12.13;;;6.00;;
55756;SDS011;41676;44.610;44.078;2022-12-29T02:59:29;12.13;;;6.05;;
55756;SDS011;41676;44.610;44.078;2022-12-29T03:04:40;10.85;;;6.60;;
55756;SDS011;41676;44.610;44.078;2022-12-29T03:09:59;12.77;;;6.22;;
55756;SDS011;41676;44.610;44.078;2022-12-29T03:15:10;8.20;;;5.60;;
55756;SDS011;41676;44.610;44.078;2022-12-29T03:20:52;12.77;;;6.00;;
55756;SDS011;41676;44.610;44.078;2022-12-29T03:25:58;12.40;;;6.38;;
55756;SDS011;41676;44.610;44.078;2022-12-29T03:31:04;13.55;;;6.35;;
55756;SDS011;41676;44.610;44.078;2022-12-29T03:36:09;10.60;;;6.03;;
55756;SDS011;41676;44.610;44.078;2022-12-29T03:41:20;15.32;;;5.78;;
55756;SDS011;41676;44.610;44.078;2022-12-29T03:46:26;11.60;;;5.78;;
55756;SDS011;41676;44.610;44.078;2022-12-29T03:51:26;12.48;;;6.03;;
55756;SDS011;41676;44.610;44.078;2022-12-29T03:56:27;9.80;;;5.53;;
55756;SDS011;41676;44.610;44.078;2022-12-29T04:01:28;10.40;;;5.80;;
55756;SDS011;41676;44.610;44.078;2022-12-29T04:06:29;11.00;;;5.68;;
55756;SDS011;41676;44.610;44.078;2022-12-29T04:11:30;9.73;;;5.40;;
55756;SDS011;41676;44.610;44.078;2022-12-29T04:16:31;8.50;;;4.78;;
55756;SDS011;41676;44.610;44.078;2022-12-29T04:21:31;9.52;;;4.35;;
55756;SDS011;41676;44.610;44.078;2022-12-29T04:26:32;8.95;;;3.78;;
55756;SDS011;41676;44.610;44.078;2022-12-29T04:31:33;7.40;;;3.80;;
55756;SDS011;41676;44.610;44.078;2022-12-29T04:36:34;7.20;;;3.53;;
55756;SDS011;41676;44.610;44.078;2022-12-29T04:41:35;5.30;;;3.35;;
55756;SDS011;41676;44.610;44.078;2022-12-29T04:46:36;9.10;;;3.42;;
55756;SDS011;41676;44.610;44.078;2022-12-29T04:51:37;7.07;;;3.55;;
55756;SDS011;41676;44.610;44.078;2022-12-29T04:56:37;7.72;;;3.95;;
55756;SDS011;41676;44.610;44.078;2022-12-29T05:01:38;8.07;;;3.40;;
55756;SDS011;41676;44.610;44.078;2022-12-29T05:06:39;5.88;;;3.83;;
55756;SDS011;41676;44.610;44.078;2022-12-29T05:11:40;9.70;;;3.47;;
55756;SDS011;41676;44.610;44.078;2022-12-29T05:16:40;5.07;;;2.72;;
55756;SDS011;41676;44.610;44.078;2022-12-29T05:21:41;6.38;;;2.65;;
55756;SDS011;41676;44.610;44.078;2022-12-29T05:26:42;5.15;;;2.55;;
55756;SDS011;41676;44.610;44.078;2022-12-29T05:31:43;3.75;;;2.40;;
55756;SDS011;41676;44.610;44.078;2022-12-29T05:36:44;5.72;;;2.55;;
55756;SDS011;41676;44.610;44.078;2022-12-29T05:41:45;11.43;;;2.60;;
55756;SDS011;41676;44.610;44.078;2022-12-29T05:46:46;4.20;;;2.35;;
55756;SDS011;41676;44.610;44.078;2022-12-29T05:51:46;7.88;;;2.30;;
55756;SDS011;41676;44.610;44.078;2022-12-29T05:56:48;5.32;;;2.60;;
55756;SDS011;41676;44.610;44.078;2022-12-29T06:01:49;5.88;;;2.58;;
55756;SDS011;41676;44.610;44.078;2022-12-29T06:06:50;6.03;;;2.05;;
55756;SDS011;41676;44.610;44.078;2022-12-29T06:11:51;5.68;;;2.65;;
55756;SDS011;41676;44.610;44.078;2022-12-29T06:16:52;5.63;;;2.80;;
55756;SDS011;41676;44.610;44.078;2022-12-29T06:21:52;4.68;;;1.92;;
55756;SDS011;41676;44.610;44.078;2022-12-29T06:26:53;6.18;;;2.40;;
55756;SDS011;41676;44.610;44.078;2022-12-29T06:31:54;6.70;;;2.00;;
55756;SDS011;41676;44.610;44.078;2022-12-29T06:36:58;6.43;;;2.38;;
55756;SDS011;41676;44.610;44.078;2022-12-29T06:41:58;4.80;;;2.00;;
55756;SDS011;41676;44.610;44.078;2022-12-29T06:46:59;3.88;;;2.15;;
55756;SDS011;41676;44.610;44.078;2022-12-29T06:52:00;4.47;;;2.30;;
55756;SDS011;41676;44.610;44.078;2022-12-29T06:57:04;5.17;;;2.00;;
55756;SDS011;41676;44.610;44.078;2022-12-29T07:02:05;14.25;;;2.30;;
55756;SDS011;41676;44.610;44.078;2022-12-29T07:07:06;5.97;;;1.90;;
55756;SDS011;41676;44.610;44.078;2022-12-29T07:12:06;7.82;;;2.25;;
55756;SDS011;41676;44.610;44.078;2022-12-29T07:17:07;4.68;;;2.10;;
55756;SDS011;41676;44.610;44.078;2022-12-29T07:22:09;7.45;;;2.70;;
55756;SDS011;41676;44.610;44.078;2022-12-29T07:27:09;5.38;;;2.00;;
55756;SDS011;41676;44.610;44.078;2022-12-29T07:32:10;5.22;;;2.42;;
55756;SDS011;41676;44.610;44.078;2022-12-29T07:37:11;4.32;;;1.90;;
55756;SDS011;41676;44.610;44.078;2022-12-29T07:42:12;5.95;;;2.83;;
55756;SDS011;41676;44.610;44.078;2022-12-29T07:47:13;6.20;;;3.03;;
55756;SDS011;41676;44.610;44.078;2022-12-29T07:52:14;8.35;;;3.60;;
55756;SDS011;41676;44.610;44.078;2022-12-29T07:57:15;5.25;;;2.55;;
55756;SDS011;41676;44.610;44.078;2022-12-29T08:02:15;5.50;;;2.63;;
55756;SDS011;41676;44.610;44.078;2022-12-29T08:07:16;5.32;;;2.88;;
55756;SDS011;41676;44.610;44.078;2022-12-29T08:12:17;5.00;;;2.83;;
55756;SDS011;41676;44.610;44.078;2022-12-29T08:17:18;6.72;;;3.13;;
55756;SDS011;41676;44.610;44.078;2022-12-29T08:22:19;8.60;;;3.67;;
55756;SDS011;41676;44.610;44.078;2022-12-29T08:27:19;9.48;;;3.60;;
55756;SDS011;41676;44.610;44.078;2022-12-29T08:32:20;7.00;;;3.78;;
55756;SDS011;41676;44.610;44.078;2022-12-29T08:37:21;6.20;;;3.40;;
55756;SDS011;41676;44.610;44.078;2022-12-29T08:42:22;6.63;;;3.00;;
55756;SDS011;41676;44.610;44.078;2022-12-29T08:47:23;7.13;;;3.85;;
55756;SDS011;41676;44.610;44.078;2022-12-29T08:52:24;6.68;;;3.45;;
55756;SDS011;41676;44.610;44.078;2022-12-29T08:57:25;6.85;;;3.70;;
55756;SDS011;41676;44.610;44.078;2022-12-29T09:02:26;11.65;;;3.60;;
55756;SDS011;41676;44.610;44.078;2022-12-29T09:07:27;8.52;;;3.42;;
55756;SDS011;41676;44.610;44.078;2022-12-29T09:12:28;10.13;;;4.18;;
55756;SDS011;41676;44.610;44.078;2022-12-29T09:17:28;10.73;;;4.07;;
55756;SDS011;41676;44.610;44.078;2022-12-29T09:22:42;8.98;;;3.35;;
55756;SDS011;41676;44.610;44.078;2022-12-29T09:27:43;9.45;;;3.55;;
55756;SDS011;41676;44.610;44.078;2022-12-29T09:32:44;6.97;;;3.58;;
55756;SDS011;41676;44.610;44.078;2022-12-29T09:37:44;8.88;;;3.80;;
55756;SDS011;41676;44.610;44.078;2022-12-29T09:42:50;10.25;;;4.07;;
55756;SDS011;41676;44.610;44.078;2022-12-29T09:48:06;6.15;;;3.60;;
55756;SDS011;41676;44.610;44.078;2022-12-29T09:53:38;7.35;;;3.90;;
55756;SDS011;41676;44.610;44.078;2022-12-29T09:58:51;7.72;;;3.90;;
55756;SDS011;41676;44.610;44.078;2022-12-29T10:03:58;8.10;;;3.60;;
55756;SDS011;41676;44.610;44.078;2022-12-29T10:09:17;5.38;;;2.90;;
55756;SDS011;41676;44.610;44.078;2022-12-29T10:14:33;7.37;;;3.43;;
55756;SDS011;41676;44.610;44.078;2022-12-29T10:25:02;7.30;;;3.70;;
55756;SDS011;41676;44.610;44.078;2022-12-29T10:30:12;5.38;;;3.63;;
55756;SDS011;41676;44.610;44.078;2022-12-29T10:35:16;7.20;;;3.70;;
55756;SDS011;41676;44.610;44.078;2022-12-29T10:45:53;6.28;;;3.05;;
55756;SDS011;41676;44.610;44.078;2022-12-29T10:50:58;6.30;;;3.58;;
55756;SDS011;41676;44.610;44.078;2022-12-29T10:56:01;9.05;;;4.28;;
55756;SDS011;41676;44.610;44.078;2022-12-29T11:01:10;8.18;;;4.55;;
55756;SDS011;41676;44.610;44.078;2022-12-29T11:06:14;5.70;;;3.10;;
55756;SDS011;41676;44.610;44.078;2022-12-29T11:11:22;5.35;;;2.95;;
55756;SDS011;41676;44.610;44.078;2022-12-29T11:16:31;9.18;;;3.92;;
55756;SDS011;41676;44.610;44.078;2022-12-29T11:21:35;9.70;;;4.65;;
55756;SDS011;41676;44.610;44.078;2022-12-29T11:26:40;6.97;;;4.05;;
55756;SDS011;41676;44.610;44.078;2022-12-29T11:36:45;8.05;;;4.25;;
55756;SDS011;41676;44.610;44.078;2022-12-29T11:41:50;7.25;;;4.60;;
55756;SDS011;41676;44.610;44.078;2022-12-29T11:46:53;11.55;;;6.63;;
55756;SDS011;41676;44.610;44.078;2022-12-29T11:51:55;7.85;;;5.13;;
55756;SDS011;41676;44.610;44.078;2022-12-29T11:56:57;11.10;;;5.68;;
55756;SDS011;41676;44.610;44.078;2022-12-29T12:01:59;6.72;;;4.47;;
55756;SDS011;41676;44.610;44.078;2022-12-29T12:07:12;10.23;;;5.43;;
55756;SDS011;41676;44.610;44.078;2022-12-29T12:12:37;9.52;;;5.20;;
55756;SDS011;41676;44.610;44.078;2022-12-29T12:18:28;8.70;;;4.18;;
55756;SDS011;41676;44.610;44.078;2022-12-29T12:23:20;10.45;;;3.80;;
55756;SDS011;41676;44.610;44.078;2022-12-29T12:28:28;12.75;;;6.90;;
55756;SDS011;41676;44.610;44.078;2022-12-29T12:33:41;9.48;;;5.28;;
55756;SDS011;41676;44.610;44.078;2022-12-29T13:00:08;6.80;;;3.50;;
55756;SDS011;41676;44.610;44.078;2022-12-29T13:10:42;6.15;;;3.92;;
55756;SDS011;41676;44.610;44.078;2022-12-29T13:26:32;9.25;;;4.00;;
55756;SDS011;41676;44.610;44.078;2022-12-29T13:31:46;15.80;;;4.03;;
55756;SDS011;41676;44.610;44.078;2022-12-29T13:37:04;11.93;;;5.90;;
55756;SDS011;41676;44.610;44.078;2022-12-29T13:42:11;38.80;;;17.35;;
55756;SDS011;41676;44.610;44.078;2022-12-29T13:47:21;28.67;;;14.02;;
55756;SDS011;41676;44.610;44.078;2022-12-29T13:52:32;17.85;;;7.80;;
55756;SDS011;41676;44.610;44.078;2022-12-29T13:57:51;19.13;;;8.50;;
55756;SDS011;41676;44.610;44.078;2022-12-29T14:03:04;31.55;;;19.90;;
55756;SDS011;41676;44.610;44.078;2022-12-29T14:08:24;20.45;;;10.90;;
55756;SDS011;41676;44.610;44.078;2022-12-29T14:13:25;24.95;;;10.25;;
55756;SDS011;41676;44.610;44.078;2022-12-29T14:18:28;19.58;;;9.15;;
55756;SDS011;41676;44.610;44.078;2022-12-29T14:28:37;20.95;;;11.82;;
55756;SDS011;41676;44.610;44.078;2022-12-29T14:33:39;17.35;;;12.07;;
55756;SDS011;41676;44.610;44.078;2022-12-29T14:38:43;18.70;;;10.88;;
55756;SDS011;41676;44.610;44.078;2022-12-29T14:49:08;26.58;;;7.68;;
55756;SDS011;41676;44.610;44.078;2022-12-29T14:59:33;14.07;;;5.70;;
55756;SDS011;41676;44.610;44.078;2022-12-29T15:04:36;23.85;;;7.72;;
55756;SDS011;41676;44.610;44.078;2022-12-29T15:09:47;29.88;;;8.05;;
55756;SDS011;41676;44.610;44.078;2022-12-29T15:14:55;13.93;;;5.75;;
55756;SDS011;41676;44.610;44.078;2022-12-29T15:19:58;8.63;;;4.60;;
55756;SDS011;41676;44.610;44.078;2022-12-29T15:25:01;12.38;;;4.97;;
55756;SDS011;41676;44.610;44.078;2022-12-29T15:30:03;36.53;;;6.22;;
55756;SDS011;41676;44.610;44.078;2022-12-29T15:40:33;15.75;;;4.97;;
55756;SDS011;41676;44.610;44.078;2022-12-29T15:45:34;14.55;;;4.80;;
55756;SDS011;41676;44.610;44.078;2022-12-29T15:50:35;13.50;;;3.70;;
55756;SDS011;41676;44.610;44.078;2022-12-29T15:55:40;8.85;;;3.90;;
55756;SDS011;41676;44.610;44.078;2022-12-29T16:00:45;28.17;;;9.45;;
55756;SDS011;41676;44.610;44.078;2022-12-29T16:05:55;22.00;;;8.75;;
55756;SDS011;41676;44.610;44.078;2022-12-29T16:12:13;16.33;;;8.13;;
55756;SDS011;41676;44.610;44.078;2022-12-29T16:16:43;15.93;;;8.77;;
55756;SDS011;41676;44.610;44.078;2022-12-29T16:21:46;18.17;;;8.97;;
55756;SDS011;41676;44.610;44.078;2022-12-29T16:26:48;17.08;;;8.48;;
55756;SDS011;41676;44.610;44.078;2022-12-29T16:31:54;16.60;;;7.60;;
55756;SDS011;41676;44.610;44.078;2022-12-29T16:37:04;17.90;;;7.30;;
55756;SDS011;41676;44.610;44.078;2022-12-29T16:42:34;15.45;;;8.55;;
55756;SDS011;41676;44.610;44.078;2022-12-29T16:47:41;19.33;;;8.32;;
55756;SDS011;41676;44.610;44.078;2022-12-29T16:52:42;16.40;;;8.85;;
55756;SDS011;41676;44.610;44.078;2022-12-29T16:57:43;21.70;;;8.60;;
55756;SDS011;41676;44.610;44.078;2022-12-29T17:02:48;9.93;;;6.13;;
55756;SDS011;41676;44.610;44.078;2022-12-29T17:07:51;18.90;;;7.10;;
55756;SDS011;41676;44.610;44.078;2022-12-29T17:12:53;18.25;;;7.60;;
55756;SDS011;41676;44.610;44.078;2022-12-29T17:17:54;15.57;;;7.20;;
55756;SDS011;41676;44.610;44.078;2022-12-29T17:22:56;10.38;;;5.22;;
55756;SDS011;41676;44.610;44.078;2022-12-29T17:28:03;12.68;;;5.78;;
55756;SDS011;41676;44.610;44.078;2022-12-29T17:33:14;11.43;;;6.30;;
55756;SDS011;41676;44.610;44.078;2022-12-29T17:38:19;13.32;;;6.95;;
55756;SDS011;41676;44.610;44.078;2022-12-29T17:43:23;17.58;;;8.23;;
55756;SDS011;41676;44.610;44.078;2022-12-29T17:48:24;23.95;;;7.60;;
55756;SDS011;41676;44.610;44.078;2022-12-29T17:53:27;21.85;;;7.15;;
55756;SDS011;41676;44.610;44.078;2022-12-29T17:58:29;17.50;;;7.65;;
55756;SDS011;41676;44.610;44.078;2022-12-29T18:03:33;16.45;;;6.72;;
55756;SDS011;41676;44.610;44.078;2022-12-29T18:08:38;15.18;;;7.63;;
55756;SDS011;41676;44.610;44.078;2022-12-29T18:13:40;16.20;;;9.13;;
55756;SDS011;41676;44.610;44.078;2022-12-29T18:18:41;18.50;;;8.50;;
55756;SDS011;41676;44.610;44.078;2022-12-29T18:23:42;20.13;;;10.55;;
55756;SDS011;41676;44.610;44.078;2022-12-29T18:28:44;16.15;;;9.23;;
55756;SDS011;41676;44.610;44.078;2022-12-29T18:33:49;17.02;;;9.02;;
55756;SDS011;41676;44.610;44.078;2022-12-29T18:38:51;21.90;;;9.73;;
55756;SDS011;41676;44.610;44.078;2022-12-29T18:43:54;21.75;;;10.35;;
55756;SDS011;41676;44.610;44.078;2022-12-29T18:48:55;13.45;;;7.85;;
55756;SDS011;41676;44.610;44.078;2022-12-29T18:53:56;20.00;;;7.30;;
55756;SDS011;41676;44.610;44.078;2022-12-29T18:58:57;13.63;;;7.18;;
55756;SDS011;41676;44.610;44.078;2022-12-29T19:03:57;15.90;;;8.75;;
55756;SDS011;41676;44.610;44.078;2022-12-29T19:08:58;14.70;;;8.13;;
55756;SDS011;41676;44.610;44.078;2022-12-29T19:13:59;22.75;;;7.30;;
55756;SDS011;41676;44.610;44.078;2022-12-29T19:19:00;12.48;;;6.38;;
55756;SDS011;41676;44.610;44.078;2022-12-29T19:24:01;14.02;;;7.13;;
55756;SDS011;41676;44.610;44.078;2022-12-29T19:29:02;12.02;;;7.75;;
55756;SDS011;41676;44.610;44.078;2022-12-29T19:34:13;16.02;;;7.75;;
55756;SDS011;41676;44.610;44.078;2022-12-29T19:44:17;17.48;;;8.70;;
55756;SDS011;41676;44.610;44.078;2022-12-29T19:49:18;23.73;;;11.48;;
55756;SDS011;41676;44.610;44.078;2022-12-29T19:54:19;27.75;;;11.90;;
55756;SDS011;41676;44.610;44.078;2022-12-29T19:59:20;15.07;;;8.23;;
55756;SDS011;41676;44.610;44.078;2022-12-29T20:04:21;16.25;;;8.40;;
55756;SDS011;41676;44.610;44.078;2022-12-29T20:09:22;26.10;;;7.93;;
55756;SDS011;41676;44.610;44.078;2022-12-29T20:14:23;13.55;;;8.13;;
55756;SDS011;41676;44.610;44.078;2022-12-29T20:19:24;19.25;;;7.88;;
55756;SDS011;41676;44.610;44.078;2022-12-29T20:24:24;14.63;;;7.05;;
55756;SDS011;41676;44.610;44.078;2022-12-29T20:29:25;14.10;;;7.15;;
55756;SDS011;41676;44.610;44.078;2022-12-29T20:34:26;12.23;;;6.63;;
55756;SDS011;41676;44.610;44.078;2022-12-29T20:39:27;9.18;;;5.85;;
55756;SDS011;41676;44.610;44.078;2022-12-29T20:44:28;12.57;;;7.20;;
55756;SDS011;41676;44.610;44.078;2022-12-29T20:49:30;15.48;;;7.22;;
55756;SDS011;41676;44.610;44.078;2022-12-29T20:54:34;14.68;;;6.97;;
55756;SDS011;41676;44.610;44.078;2022-12-29T20:59:35;12.40;;;7.32;;
55756;SDS011;41676;44.610;44.078;2022-12-29T21:04:36;12.02;;;7.13;;
55756;SDS011;41676;44.610;44.078;2022-12-29T21:09:37;20.02;;;8.30;;
55756;SDS011;41676;44.610;44.078;2022-12-29T21:14:38;21.95;;;9.35;;
55756;SDS011;41676;44.610;44.078;2022-12-29T21:19:39;20.20;;;9.68;;
55756;SDS011;41676;44.610;44.078;2022-12-29T21:24:39;17.13;;;9.57;;
55756;SDS011;41676;44.610;44.078;2022-12-29T21:29:40;16.23;;;7.95;;
55756;SDS011;41676;44.610;44.078;2022-12-29T21:34:41;16.23;;;7.30;;
55756;SDS011;41676;44.610;44.078;2022-12-29T21:39:41;13.07;;;7.32;;
55756;SDS011;41676;44.610;44.078;2022-12-29T21:44:42;15.13;;;7.32;;
55756;SDS011;41676;44.610;44.078;2022-12-29T21:50:01;13.55;;;7.65;;
55756;SDS011;41676;44.610;44.078;2022-12-29T21:55:02;13.13;;;7.05;;
55756;SDS011;41676;44.610;44.078;2022-12-29T22:00:04;15.70;;;7.95;;
55756;SDS011;41676;44.610;44.078;2022-12-29T22:05:25;11.93;;;7.18;;
55756;SDS011;41676;44.610;44.078;2022-12-29T22:10:45;16.88;;;7.10;;
55756;SDS011;41676;44.610;44.078;2022-12-29T22:16:06;11.70;;;6.78;;
55756;SDS011;41676;44.610;44.078;2022-12-29T22:21:09;13.13;;;7.25;;
55756;SDS011;41676;44.610;44.078;2022-12-29T22:26:11;14.70;;;6.38;;
55756;SDS011;41676;44.610;44.078;2022-12-29T22:31:24;13.30;;;6.10;;
55756;SDS011;41676;44.610;44.078;2022-12-29T22:36:27;17.13;;;7.03;;
55756;SDS011;41676;44.610;44.078;2022-12-29T22:41:29;9.57;;;6.03;;
55756;SDS011;41676;44.610;44.078;2022-12-29T22:46:29;13.88;;;6.70;;
55756;SDS011;41676;44.610;44.078;2022-12-29T22:51:30;11.02;;;6.22;;
55756;SDS011;41676;44.610;44.078;2022-12-29T22:56:31;13.70;;;6.50;;
55756;SDS011;41676;44.610;44.078;2022-12-29T23:01:32;14.70;;;6.70;;
55756;SDS011;41676;44.610;44.078;2022-12-29T23:06:33;12.50;;;7.60;;
55756;SDS011;41676;44.610;44.078;2022-12-29T23:11:34;12.52;;;6.53;;
55756;SDS011;41676;44.610;44.078;2022-12-29T23:16:35;12.60;;;7.07;;
55756;SDS011;41676;44.610;44.078;2022-12-29T23:21:36;13.30;;;6.25;;
55756;SDS011;41676;44.610;44.078;2022-12-29T23:26:44;12.43;;;6.55;;
55756;SDS011;41676;44.610;44.078;2022-12-29T23:31:47;12.20;;;6.30;;
55756;SDS011;41676;44.610;44.078;2022-12-29T23:36:47;11.35;;;6.00;;
55756;SDS011;41676;44.610;44.078;2022-12-29T23:41:50;10.57;;;5.55;;
55756;SDS011;41676;44.610;44.078;2022-12-29T23:46:51;10.13;;;4.85;;
55756;SDS011;41676;44.610;44.078;2022-12-29T23:51:52;11.98;;;5.72;;
55756;SDS011;41676;44.610;44.078;2022-12-29T23:56:52;9.35;;;5.40;;
